Time;durP1;ratioP1;P1;durP2;ratioP2;P2;SDS_P1;SDS_P2;PMS_P1;PMS_P2;Temp;Humidity;BMP_temperature;BMP_pressure;BME280_temperature;BME280_humidity;BME280_pressure;Samples;Min_cycle;Max_cycle;Signal;HPM_P1;HPM_P2
2023/01/04 00:00:13;;;;;;;11.65;6.70;;;;;;;;;;4921519;28;20054;-72
2023/01/04 00:02:38;;;;;;;24.67;15.35;;;;;;;;;;4920547;28;20035;-72
2023/01/04 00:05:04;;;;;;;15.18;10.75;;;;;;;;;;4920578;28;20032;-72
2023/01/04 00:07:30;;;;;;;17.33;8.57;;;;;;;;;;4902658;28;20035;-68
2023/01/04 00:09:56;;;;;;;15.02;7.50;;;;;;;;;;4921075;28;20587;-68
2023/01/04 00:12:22;;;;;;;13.77;6.95;;;;;;;;;;4920004;28;20121;-68
2023/01/04 00:14:49;;;;;;;13.85;6.85;;;;;;;;;;4920757;28;20035;-68
2023/01/04 00:17:14;;;;;;;10.65;6.40;;;;;;;;;;4920198;28;20042;-77
2023/01/04 00:19:42;;;;;;;15.90;8.13;;;;;;;;;;4902895;28;20481;-73
2023/01/04 00:22:07;;;;;;;13.13;6.70;;;;;;;;;;4909383;28;20201;-72
2023/01/04 00:24:33;;;;;;;17.33;9.75;;;;;;;;;;4939749;28;20035;-73
2023/01/04 00:26:58;;;;;;;15.40;9.43;;;;;;;;;;4942137;28;20031;-71
2023/01/04 00:29:25;;;;;;;11.25;6.93;;;;;;;;;;4943038;28;20031;-71
2023/01/04 00:31:53;;;;;;;13.43;7.93;;;;;;;;;;4925167;28;20492;-71
2023/01/04 00:34:19;;;;;;;16.65;7.45;;;;;;;;;;4925610;28;20034;-72
2023/01/04 00:36:44;;;;;;;13.75;7.75;;;;;;;;;;4925039;28;20341;-72
2023/01/04 00:39:15;;;;;;;13.90;6.70;;;;;;;;;;4942954;28;20563;-72
2023/01/04 00:41:44;;;;;;;18.02;6.78;;;;;;;;;;4943059;28;20024;-72
2023/01/04 00:44:12;;;;;;;18.35;6.88;;;;;;;;;;4925444;28;20023;-72
2023/01/04 00:46:41;;;;;;;20.13;8.65;;;;;;;;;;4934243;28;20031;-71
2023/01/04 00:49:07;;;;;;;27.48;9.23;;;;;;;;;;4921495;28;20434;-70
2023/01/04 00:51:36;;;;;;;18.38;7.65;;;;;;;;;;4923451;28;20041;-73
2023/01/04 00:54:02;;;;;;;27.42;10.40;;;;;;;;;;4923861;28;20717;-71
2023/01/04 00:56:28;;;;;;;23.95;9.35;;;;;;;;;;4922919;28;20744;-73
2023/01/04 00:58:57;;;;;;;22.58;9.63;;;;;;;;;;4937779;28;20031;-74
2023/01/04 01:01:23;;;;;;;26.33;11.93;;;;;;;;;;4924920;28;20513;-73
2023/01/04 01:03:55;;;;;;;26.25;11.15;;;;;;;;;;4925513;28;20555;-73
2023/01/04 01:06:21;;;;;;;25.58;11.18;;;;;;;;;;4942300;28;20042;-75
2023/01/04 01:08:47;;;;;;;23.02;10.02;;;;;;;;;;4925687;28;20031;-72
2023/01/04 01:11:12;;;;;;;18.08;7.97;;;;;;;;;;4941962;28;20038;-73
2023/01/04 01:13:38;;;;;;;21.73;7.65;;;;;;;;;;4942718;28;20187;-73
2023/01/04 01:16:05;;;;;;;32.42;7.75;;;;;;;;;;4942051;28;20089;-71
2023/01/04 01:18:31;;;;;;;26.48;8.52;;;;;;;;;;4941801;28;20027;-75
2023/01/04 01:20:58;;;;;;;28.73;6.82;;;;;;;;;;4941781;28;20047;-73
2023/01/04 01:23:24;;;;;;;20.55;4.90;;;;;;;;;;4923966;28;20092;-73
2023/01/04 01:25:49;;;;;;;22.00;5.78;;;;;;;;;;4942712;28;20454;-75
2023/01/04 01:28:17;;;;;;;24.90;5.53;;;;;;;;;;4942480;28;20042;-73
2023/01/04 01:30:42;;;;;;;27.92;5.65;;;;;;;;;;4909884;28;20039;-71
2023/01/04 01:33:08;;;;;;;19.45;5.15;;;;;;;;;;4941547;28;20090;-71
2023/01/04 01:35:34;;;;;;;24.85;6.03;;;;;;;;;;4942386;28;20438;-71
2023/01/04 01:38:02;;;;;;;30.63;7.32;;;;;;;;;;4924623;28;20030;-72
2023/01/04 01:40:27;;;;;;;27.15;5.60;;;;;;;;;;4925102;28;20137;-73
2023/01/04 01:42:53;;;;;;;25.67;5.53;;;;;;;;;;4941774;28;20284;-73
2023/01/04 01:45:29;;;;;;;29.38;6.43;;;;;;;;;;4936273;28;20145;-71
2023/01/04 01:48:00;;;;;;;33.00;6.57;;;;;;;;;;4897140;28;20427;-73
2023/01/04 01:50:28;;;;;;;29.95;6.22;;;;;;;;;;4923907;28;20509;-76
2023/01/04 01:52:54;;;;;;;28.85;6.53;;;;;;;;;;5005062;28;20228;-74
2023/01/04 01:55:20;;;;;;;34.28;7.13;;;;;;;;;;4905246;28;20043;-70
2023/01/04 01:57:47;;;;;;;33.83;6.47;;;;;;;;;;4939475;28;20442;-75
2023/01/04 02:00:13;;;;;;;31.83;6.88;;;;;;;;;;4942411;28;20129;-70
2023/01/04 02:02:46;;;;;;;26.52;7.63;;;;;;;;;;4942090;28;20092;-77
2023/01/04 02:05:12;;;;;;;35.33;8.30;;;;;;;;;;4941206;28;20093;-71
2023/01/04 02:07:40;;;;;;;27.73;6.22;;;;;;;;;;4924564;28;20134;-69
2023/01/04 02:10:07;;;;;;;32.70;6.95;;;;;;;;;;4941467;28;20034;-70
2023/01/04 02:12:33;;;;;;;29.52;7.68;;;;;;;;;;4924253;28;20039;-72
2023/01/04 02:14:58;;;;;;;33.17;7.45;;;;;;;;;;4942602;28;20042;-73
2023/01/04 02:17:33;;;;;;;45.97;9.15;;;;;;;;;;4941738;28;20031;-70
2023/01/04 02:20:13;;;;;;;38.83;8.32;;;;;;;;;;4941859;28;20047;-72
2023/01/04 02:22:56;;;;;;;40.30;7.75;;;;;;;;;;4940962;28;20100;-73
2023/01/04 02:25:40;;;;;;;44.67;8.25;;;;;;;;;;4923486;28;20368;-72
2023/01/04 02:28:13;;;;;;;50.83;9.65;;;;;;;;;;4941423;28;20035;-71
2023/01/04 02:30:51;;;;;;;44.72;9.90;;;;;;;;;;4941156;28;20076;-69
2023/01/04 02:33:19;;;;;;;36.22;7.72;;;;;;;;;;4908756;28;20046;-68
2023/01/04 02:35:44;;;;;;;36.70;9.10;;;;;;;;;;4942177;28;20398;-70
2023/01/04 02:38:28;;;;;;;45.60;10.10;;;;;;;;;;4941143;28;20089;-72
2023/01/04 02:41:08;;;;;;;39.90;8.13;;;;;;;;;;4940955;28;20066;-72
2023/01/04 02:46:29;;;;;;;31.95;8.07;;;;;;;;;;4940155;28;20134;-72
2023/01/04 02:51:43;;;;;;;39.47;9.30;;;;;;;;;;4941318;28;20039;-77
2023/01/04 02:54:14;;;;;;;43.95;8.60;;;;;;;;;;4940323;28;20950;-72
2023/01/04 02:56:58;;;;;;;53.85;9.35;;;;;;;;;;4941109;28;20039;-71
2023/01/04 02:59:26;;;;;;;41.92;8.45;;;;;;;;;;4941320;28;20535;-71
2023/01/04 03:07:41;;;;;;;54.38;11.68;;;;;;;;;;4941114;28;20184;-74
2023/01/04 03:10:10;;;;;;;78.00;12.73;;;;;;;;;;4940535;28;20033;-73
2023/01/04 03:12:42;;;;;;;57.72;11.00;;;;;;;;;;5006490;28;20555;-73
2023/01/04 03:15:13;;;;;;;58.15;10.60;;;;;;;;;;4941182;28;20031;-73
2023/01/04 03:17:44;;;;;;;50.28;11.55;;;;;;;;;;4940659;28;20027;-72
2023/01/04 03:20:10;;;;;;;58.42;11.95;;;;;;;;;;4939938;28;20342;-72
2023/01/04 03:36:53;;;;;;;45.88;8.77;;;;;;;;;;4940568;28;20031;-73
2023/01/04 03:48:32;;;;;;;34.15;8.63;;;;;;;;;;4920684;28;20259;-72
2023/01/04 03:51:14;;;;;;;37.45;10.23;;;;;;;;;;4919197;28;20042;-72
2023/01/04 03:53:48;;;;;;;41.08;9.73;;;;;;;;;;4924731;28;20513;-73
2023/01/04 03:56:15;;;;;;;41.33;10.60;;;;;;;;;;4940000;28;20027;-74
2023/01/04 03:58:41;;;;;;;36.75;9.63;;;;;;;;;;4939519;28;20035;-74
2023/01/04 04:01:06;;;;;;;34.55;9.55;;;;;;;;;;4924891;28;20480;-73
2023/01/04 04:08:59;;;;;;;52.30;10.82;;;;;;;;;;4944240;28;20108;-72
2023/01/04 04:11:31;;;;;;;40.78;11.15;;;;;;;;;;4927207;28;20449;-71
2023/01/04 04:13:59;;;;;;;48.67;11.43;;;;;;;;;;4942966;28;20096;-77
2023/01/04 04:16:27;;;;;;;50.65;12.23;;;;;;;;;;4943138;28;20039;-71
2023/01/04 04:18:53;;;;;;;61.35;12.05;;;;;;;;;;4943718;28;20110;-72
2023/01/04 04:21:21;;;;;;;47.03;11.07;;;;;;;;;;4943380;28;20493;-75
2023/01/04 04:23:47;;;;;;;57.42;12.45;;;;;;;;;;4944040;28;20039;-72
2023/01/04 04:26:12;;;;;;;57.60;11.05;;;;;;;;;;4926758;28;20046;-75
2023/01/04 04:28:38;;;;;;;56.15;10.95;;;;;;;;;;4945494;28;20031;-73
2023/01/04 04:31:04;;;;;;;60.63;10.80;;;;;;;;;;4925866;28;20037;-78
2023/01/04 04:33:29;;;;;;;49.53;9.65;;;;;;;;;;4995769;28;20027;-73
2023/01/04 04:35:55;;;;;;;55.75;8.90;;;;;;;;;;4910901;28;20559;-73
2023/01/04 04:38:20;;;;;;;48.35;9.23;;;;;;;;;;4926187;28;20134;-73
2023/01/04 04:43:29;;;;;;;47.83;8.38;;;;;;;;;;4943756;28;20092;-74
2023/01/04 04:45:55;;;;;;;53.90;8.98;;;;;;;;;;4944805;28;20084;-74
2023/01/04 04:48:21;;;;;;;58.10;9.45;;;;;;;;;;4942893;28;20149;-77
2023/01/04 04:50:48;;;;;;;56.20;9.32;;;;;;;;;;4942436;28;20428;-73
2023/01/04 04:53:14;;;;;;;67.78;10.70;;;;;;;;;;4942055;28;20037;-74
2023/01/04 04:55:39;;;;;;;74.90;10.18;;;;;;;;;;4942446;28;20039;-70
2023/01/04 04:58:04;;;;;;;61.80;8.98;;;;;;;;;;4942194;28;20505;-70
2023/01/04 05:00:32;;;;;;;58.00;8.85;;;;;;;;;;4942708;28;20038;-71
2023/01/04 05:02:58;;;;;;;69.78;10.35;;;;;;;;;;4942199;28;20162;-74
2023/01/04 05:05:23;;;;;;;64.43;8.63;;;;;;;;;;4925138;28;20046;-72
2023/01/04 05:07:48;;;;;;;64.20;8.85;;;;;;;;;;4941967;28;20042;-72
2023/01/04 05:10:14;;;;;;;57.50;8.35;;;;;;;;;;4942557;28;20047;-73
2023/01/04 05:15:23;;;;;;;56.53;8.18;;;;;;;;;;4942297;28;20359;-72
2023/01/04 05:17:48;;;;;;;55.00;7.68;;;;;;;;;;4925123;28;20046;-72
2023/01/04 05:20:14;;;;;;;59.45;8.45;;;;;;;;;;4942022;28;20190;-71
2023/01/04 05:22:39;;;;;;;45.20;7.15;;;;;;;;;;4924553;28;20043;-70
2023/01/04 05:25:08;;;;;;;57.90;7.53;;;;;;;;;;4908787;28;20315;-68
2023/01/04 05:27:34;;;;;;;56.08;8.13;;;;;;;;;;4924424;28;20043;-68
2023/01/04 05:32:43;;;;;;;53.42;9.20;;;;;;;;;;4927195;28;20637;-69
2023/01/04 05:35:09;;;;;;;57.00;9.48;;;;;;;;;;4942841;28;20035;-71
2023/01/04 05:37:34;;;;;;;46.92;7.32;;;;;;;;;;4924817;28;20525;-72
2023/01/04 05:39:59;;;;;;;56.63;9.05;;;;;;;;;;4941836;28;20435;-70
2023/01/04 05:42:27;;;;;;;67.53;10.88;;;;;;;;;;4924579;28;20030;-71
2023/01/04 05:44:56;;;;;;;65.53;10.13;;;;;;;;;;4908554;28;20050;-72
2023/01/04 05:47:24;;;;;;;64.18;10.57;;;;;;;;;;4941732;28;20643;-73
2023/01/04 05:49:49;;;;;;;59.97;11.65;;;;;;;;;;4941355;28;20303;-71
2023/01/04 05:52:15;;;;;;;67.78;11.13;;;;;;;;;;4941885;28;20556;-75
2023/01/04 05:54:40;;;;;;;79.93;11.00;;;;;;;;;;4941534;28;20142;-73
2023/01/04 05:57:08;;;;;;;68.63;10.82;;;;;;;;;;4941781;28;20194;-72
2023/01/04 05:59:36;;;;;;;60.00;11.27;;;;;;;;;;4924666;28;20270;-73
2023/01/04 06:02:02;;;;;;;59.00;10.40;;;;;;;;;;4941151;28;20046;-73
2023/01/04 06:04:27;;;;;;;59.75;11.00;;;;;;;;;;4942066;28;20147;-74
2023/01/04 06:06:52;;;;;;;62.28;11.70;;;;;;;;;;4924003;28;20130;-73
2023/01/04 06:09:19;;;;;;;56.17;10.80;;;;;;;;;;4941846;28;20043;-73
2023/01/04 06:11:44;;;;;;;58.22;10.60;;;;;;;;;;4941459;28;20130;-72
2023/01/04 06:14:10;;;;;;;60.00;9.15;;;;;;;;;;4924534;28;20063;-72
2023/01/04 06:16:35;;;;;;;56.50;9.77;;;;;;;;;;4940980;28;20511;-74
2023/01/04 06:19:05;;;;;;;66.13;10.60;;;;;;;;;;4941878;28;20034;-73
2023/01/04 06:21:30;;;;;;;69.20;10.85;;;;;;;;;;4908608;28;20604;-73
2023/01/04 06:23:55;;;;;;;61.10;10.02;;;;;;;;;;4904160;28;20174;-72
2023/01/04 06:26:21;;;;;;;67.57;9.88;;;;;;;;;;4923466;28;20035;-72
2023/01/04 06:28:46;;;;;;;70.10;10.75;;;;;;;;;;4906791;28;20027;-72
2023/01/04 06:31:12;;;;;;;63.97;10.00;;;;;;;;;;4922449;28;20488;-72
2023/01/04 06:33:37;;;;;;;69.13;9.20;;;;;;;;;;4904291;28;20031;-73
2023/01/04 06:36:05;;;;;;;62.63;10.45;;;;;;;;;;4921719;28;20108;-72
2023/01/04 06:38:31;;;;;;;69.65;10.88;;;;;;;;;;4922270;28;20112;-74
2023/01/04 06:40:57;;;;;;;68.10;9.00;;;;;;;;;;4922260;28;20294;-72
2023/01/04 06:43:23;;;;;;;83.85;10.73;;;;;;;;;;4904496;28;20039;-71
2023/01/04 06:45:48;;;;;;;69.57;11.32;;;;;;;;;;4888359;28;20856;-72
2023/01/04 06:48:13;;;;;;;64.18;9.65;;;;;;;;;;4921699;28;20035;-75
2023/01/04 06:50:39;;;;;;;74.15;10.45;;;;;;;;;;4913826;28;20390;-72
2023/01/04 06:53:06;;;;;;;75.45;10.02;;;;;;;;;;4904335;28;20047;-72
2023/01/04 06:55:34;;;;;;;61.17;9.25;;;;;;;;;;4921755;28;20042;-72
2023/01/04 06:58:02;;;;;;;69.00;9.88;;;;;;;;;;4903755;28;20088;-73
2023/01/04 07:00:28;;;;;;;70.57;9.52;;;;;;;;;;4922265;28;20431;-73
2023/01/04 07:02:53;;;;;;;73.40;11.43;;;;;;;;;;4921736;28;20067;-72
2023/01/04 07:05:21;;;;;;;82.55;10.50;;;;;;;;;;4921587;28;20539;-73
2023/01/04 07:07:46;;;;;;;73.78;10.75;;;;;;;;;;4921262;28;20077;-72
2023/01/04 07:10:11;;;;;;;74.53;10.13;;;;;;;;;;4919417;28;20035;-72
2023/01/04 07:12:37;;;;;;;80.25;11.90;;;;;;;;;;4921101;28;20032;-68
2023/01/04 07:15:04;;;;;;;82.15;11.63;;;;;;;;;;4921392;28;20503;-69
2023/01/04 07:17:32;;;;;;;80.40;10.45;;;;;;;;;;4921193;28;20116;-68
2023/01/04 07:20:00;;;;;;;85.57;11.95;;;;;;;;;;4921612;28;20043;-74
2023/01/04 07:22:29;;;;;;;96.03;12.48;;;;;;;;;;4927750;28;20069;-69
2023/01/04 07:24:54;;;;;;;92.32;11.95;;;;;;;;;;4939650;28;20621;-73
2023/01/04 07:27:19;;;;;;;97.28;11.82;;;;;;;;;;4922954;28;20277;-74
2023/01/04 07:29:45;;;;;;;103.60;12.70;;;;;;;;;;4939947;28;20287;-71
2023/01/04 07:32:13;;;;;;;81.82;11.13;;;;;;;;;;4924344;28;20031;-74
2023/01/04 07:34:38;;;;;;;85.70;11.65;;;;;;;;;;4939927;28;20046;-74
2023/01/04 07:37:04;;;;;;;87.65;13.13;;;;;;;;;;4906932;28;20516;-74
2023/01/04 07:39:31;;;;;;;77.80;11.68;;;;;;;;;;4939955;28;20361;-74
2023/01/04 07:42:01;;;;;;;90.32;11.77;;;;;;;;;;4921932;28;20427;-73
2023/01/04 07:44:27;;;;;;;89.43;11.07;;;;;;;;;;4907548;28;20077;-70
2023/01/04 07:46:52;;;;;;;68.65;10.77;;;;;;;;;;4929663;28;20035;-74
2023/01/04 07:49:18;;;;;;;75.63;10.75;;;;;;;;;;4934290;28;20062;-72
2023/01/04 07:51:45;;;;;;;77.07;11.18;;;;;;;;;;4938337;28;20035;-71
2023/01/04 07:54:10;;;;;;;72.07;9.32;;;;;;;;;;4940565;28;20030;-73
2023/01/04 07:56:38;;;;;;;74.78;10.60;;;;;;;;;;4938493;28;20543;-72
2023/01/04 07:59:05;;;;;;;81.57;11.90;;;;;;;;;;4922167;28;20042;-72
2023/01/04 08:01:34;;;;;;;89.53;12.02;;;;;;;;;;4940462;28;20268;-72
2023/01/04 08:04:02;;;;;;;69.72;9.82;;;;;;;;;;4940108;28;20049;-72
2023/01/04 08:06:27;;;;;;;82.88;11.32;;;;;;;;;;4939977;28;20043;-73
2023/01/04 08:08:54;;;;;;;88.07;11.45;;;;;;;;;;4938416;28;20039;-72
2023/01/04 08:11:23;;;;;;;104.75;14.77;;;;;;;;;;4940572;28;20302;-71
2023/01/04 08:13:51;;;;;;;93.65;11.15;;;;;;;;;;4940306;28;20041;-75
2023/01/04 08:16:31;;;;;;;89.50;10.98;;;;;;;;;;4940481;28;20130;-72
2023/01/04 08:18:58;;;;;;;93.30;12.90;;;;;;;;;;4921945;28;20035;-72
2023/01/04 08:21:27;;;;;;;79.72;11.18;;;;;;;;;;4925321;28;20564;-72
2023/01/04 08:23:55;;;;;;;73.60;10.88;;;;;;;;;;4940493;28;20054;-71
2023/01/04 08:26:23;;;;;;;94.38;13.15;;;;;;;;;;4940726;28;20045;-71
2023/01/04 08:28:49;;;;;;;90.55;12.20;;;;;;;;;;4923121;28;20035;-73
2023/01/04 08:31:18;;;;;;;89.53;12.50;;;;;;;;;;4939909;28;20026;-71
2023/01/04 08:33:46;;;;;;;91.07;12.43;;;;;;;;;;4939911;28;20298;-72
2023/01/04 08:36:16;;;;;;;96.72;12.88;;;;;;;;;;4941372;28;20525;-72
2023/01/04 08:38:42;;;;;;;109.72;14.00;;;;;;;;;;4922791;28;20058;-69
2023/01/04 08:41:08;;;;;;;94.30;12.70;;;;;;;;;;4923008;28;20046;-71
2023/01/04 08:43:34;;;;;;;97.25;12.77;;;;;;;;;;4940433;28;20026;-71
2023/01/04 08:46:00;;;;;;;97.93;14.23;;;;;;;;;;4936935;28;20033;-71
2023/01/04 08:48:25;;;;;;;105.00;14.80;;;;;;;;;;4946356;28;20035;-72
2023/01/04 08:50:51;;;;;;;120.38;16.23;;;;;;;;;;4944444;28;20031;-71
2023/01/04 08:53:18;;;;;;;99.30;15.10;;;;;;;;;;4944343;28;20507;-72
2023/01/04 08:55:50;;;;;;;105.93;14.50;;;;;;;;;;4946066;28;20165;-73
2023/01/04 08:58:16;;;;;;;;;;;;;;;;;;4948954;28;20059;-74
2023/01/04 09:00:43;;;;;;;97.30;14.30;;;;;;;;;;4946795;28;19924;-75
2023/01/04 09:03:08;;;;;;;105.43;14.88;;;;;;;;;;4946045;28;20073;-72
2023/01/04 09:05:34;;;;;;;138.73;16.85;;;;;;;;;;4943607;28;20035;-73
2023/01/04 09:07:59;;;;;;;117.15;15.13;;;;;;;;;;4943392;28;20023;-69
2023/01/04 09:10:25;;;;;;;118.60;16.45;;;;;;;;;;4928267;28;20084;-72
2023/01/04 09:12:50;;;;;;;114.40;17.27;;;;;;;;;;4944145;28;20158;-71
2023/01/04 09:15:17;;;;;;;107.43;15.77;;;;;;;;;;4925892;28;20031;-71
2023/01/04 09:17:42;;;;;;;106.00;14.57;;;;;;;;;;4942887;28;20294;-72
2023/01/04 09:20:07;;;;;;;129.32;17.95;;;;;;;;;;4943037;28;20038;-71
2023/01/04 09:22:33;;;;;;;121.32;15.85;;;;;;;;;;4925404;28;20039;-71
2023/01/04 09:25:01;;;;;;;122.38;16.48;;;;;;;;;;4925594;28;20039;-73
2023/01/04 09:27:26;;;;;;;121.15;15.98;;;;;;;;;;4943154;28;20205;-71
2023/01/04 09:29:51;;;;;;;109.82;15.00;;;;;;;;;;4925654;28;20485;-73
2023/01/04 09:32:17;;;;;;;111.20;16.02;;;;;;;;;;4943212;28;20132;-73
2023/01/04 09:34:43;;;;;;;105.45;14.90;;;;;;;;;;4925170;28;20100;-70
2023/01/04 09:37:08;;;;;;;134.43;17.75;;;;;;;;;;4941764;28;20465;-72
2023/01/04 09:39:33;;;;;;;116.82;16.40;;;;;;;;;;4942962;28;20122;-72
2023/01/04 09:42:04;;;;;;;106.53;14.07;;;;;;;;;;4942098;28;20043;-73
2023/01/04 09:44:40;;;;;;;116.80;15.20;;;;;;;;;;4942155;28;20108;-70
2023/01/04 09:47:09;;;;;;;121.30;16.55;;;;;;;;;;4941335;28;20035;-71
2023/01/04 09:49:40;;;;;;;116.47;15.27;;;;;;;;;;4941507;28;20548;-71
2023/01/04 09:52:08;;;;;;;82.20;13.73;;;;;;;;;;4923807;28;20037;-71
2023/01/04 09:54:45;;;;;;;100.30;14.45;;;;;;;;;;4941547;28;20466;-67
2023/01/04 09:57:34;;;;;;;91.45;13.48;;;;;;;;;;4942416;28;20685;-72
2023/01/04 10:00:02;;;;;;;102.35;13.45;;;;;;;;;;4941974;28;20111;-73
2023/01/04 10:02:47;;;;;;;104.30;13.43;;;;;;;;;;4942096;28;20051;-74
2023/01/04 10:05:17;;;;;;;109.55;14.90;;;;;;;;;;4943243;28;20034;-73
2023/01/04 10:07:45;;;;;;;93.95;12.90;;;;;;;;;;4942696;28;20877;-69
2023/01/04 10:10:19;;;;;;;95.57;13.93;;;;;;;;;;4942714;28;20381;-74
2023/01/04 10:12:51;;;;;;;91.85;14.13;;;;;;;;;;4942135;28;20267;-73
2023/01/04 10:15:31;;;;;;;99.40;14.70;;;;;;;;;;4925735;28;20061;-73
2023/01/04 10:17:57;;;;;;;87.82;13.48;;;;;;;;;;4941912;28;20548;-73
2023/01/04 10:20:46;;;;;;;87.50;12.65;;;;;;;;;;4942274;28;20063;-72
2023/01/04 10:23:20;;;;;;;90.13;11.68;;;;;;;;;;4941147;28;20038;-73
2023/01/04 10:25:48;;;;;;;99.80;13.90;;;;;;;;;;4940025;28;20043;-73
2023/01/04 10:28:18;;;;;;;89.93;11.70;;;;;;;;;;4924288;28;20093;-73
2023/01/04 10:31:02;;;;;;;78.82;10.77;;;;;;;;;;4941335;28;20078;-72
2023/01/04 10:33:32;;;;;;;71.47;11.65;;;;;;;;;;4941241;28;20035;-74
2023/01/04 10:35:57;;;;;;;90.97;13.40;;;;;;;;;;4940910;28;20055;-72
2023/01/04 10:38:25;;;;;;;86.30;11.93;;;;;;;;;;4941600;28;20096;-71
2023/01/04 10:40:51;;;;;;;103.40;14.27;;;;;;;;;;4940925;28;20529;-72
2023/01/04 10:43:19;;;;;;;69.05;9.15;;;;;;;;;;4924012;28;20348;-74
2023/01/04 10:46:03;;;;;;;76.00;10.40;;;;;;;;;;4940276;28;20031;-73
2023/01/04 10:48:57;;;;;;;74.28;11.52;;;;;;;;;;4941068;28;20208;-74
2023/01/04 10:51:29;;;;;;;77.25;9.93;;;;;;;;;;4940921;28;20492;-74
2023/01/04 10:53:54;;;;;;;;;;;;;;;;;;4923860;28;20031;-76
2023/01/04 10:56:24;;;;;;;75.40;10.75;;;;;;;;;;4940606;28;19987;-74
2023/01/04 10:58:53;;;;;;;79.13;10.82;;;;;;;;;;4940574;28;20031;-76
2023/01/04 11:01:27;;;;;;;79.70;10.32;;;;;;;;;;4940060;28;20046;-74
2023/01/04 11:03:55;;;;;;;82.47;10.60;;;;;;;;;;4941778;28;20116;-75
2023/01/04 11:06:23;;;;;;;80.30;11.25;;;;;;;;;;4944086;28;20043;-73
2023/01/04 11:08:48;;;;;;;80.70;11.10;;;;;;;;;;4940406;28;20035;-73
2023/01/04 11:11:19;;;;;;;88.93;12.43;;;;;;;;;;4922772;28;20430;-76
2023/01/04 11:13:45;;;;;;;81.68;10.95;;;;;;;;;;4940060;28;20472;-74
2023/01/04 11:16:10;;;;;;;82.40;11.40;;;;;;;;;;4940576;28;20188;-72
2023/01/04 11:18:36;;;;;;;71.95;10.05;;;;;;;;;;4941097;28;20050;-74
2023/01/04 11:21:11;;;;;;;73.72;12.20;;;;;;;;;;4941872;28;20146;-73
2023/01/04 11:23:36;;;;;;;73.68;9.75;;;;;;;;;;4943908;28;20039;-74
2023/01/04 11:26:26;;;;;;;84.20;11.48;;;;;;;;;;4943006;28;20357;-75
2023/01/04 11:28:56;;;;;;;101.40;12.77;;;;;;;;;;4942721;28;20681;-74
2023/01/04 11:31:41;;;;;;;97.57;13.32;;;;;;;;;;4943818;28;20059;-75
2023/01/04 11:34:09;;;;;;;84.20;12.25;;;;;;;;;;4944768;28;20030;-75
2023/01/04 11:36:42;;;;;;;85.97;12.18;;;;;;;;;;4944724;28;20622;-72
2023/01/04 11:39:20;;;;;;;104.28;14.10;;;;;;;;;;4940875;28;20657;-73
2023/01/04 11:41:59;;;;;;;96.20;13.48;;;;;;;;;;4942550;28;20038;-74
2023/01/04 11:44:27;;;;;;;83.07;10.97;;;;;;;;;;4942824;28;20033;-72
2023/01/04 11:47:04;;;;;;;102.80;13.15;;;;;;;;;;4943560;28;20023;-75
2023/01/04 11:49:34;;;;;;;91.72;12.57;;;;;;;;;;4941871;28;20027;-77
2023/01/04 11:51:59;;;;;;;89.72;11.65;;;;;;;;;;4940752;28;20132;-77
2023/01/04 11:54:26;;;;;;;96.57;12.00;;;;;;;;;;4942352;28;20297;-76
2023/01/04 11:57:04;;;;;;;90.88;13.00;;;;;;;;;;4940871;28;20332;-77
2023/01/04 11:59:30;;;;;;;82.78;12.18;;;;;;;;;;4940927;28;20027;-74
2023/01/04 12:02:14;;;;;;;97.97;13.88;;;;;;;;;;4942122;28;20158;-73
2023/01/04 12:04:40;;;;;;;90.47;13.27;;;;;;;;;;4941554;28;20577;-73
2023/01/04 12:07:10;;;;;;;89.65;13.65;;;;;;;;;;4941685;28;20027;-74
2023/01/04 12:09:35;;;;;;;87.70;12.50;;;;;;;;;;4942274;28;20363;-73
2023/01/04 12:12:00;;;;;;;100.07;12.98;;;;;;;;;;4942363;28;20038;-75
2023/01/04 12:14:27;;;;;;;89.07;12.23;;;;;;;;;;4940581;28;20158;-74
2023/01/04 12:16:53;;;;;;;82.75;12.38;;;;;;;;;;4941906;28;20477;-72
2023/01/04 12:19:21;;;;;;;91.68;12.43;;;;;;;;;;4940883;28;20038;-72
2023/01/04 12:21:48;;;;;;;91.93;12.52;;;;;;;;;;4942575;28;20030;-74
2023/01/04 12:24:21;;;;;;;80.43;11.40;;;;;;;;;;4944437;28;20573;-72
2023/01/04 12:26:48;;;;;;;94.28;12.10;;;;;;;;;;4944632;28;20084;-74
2023/01/04 12:29:21;;;;;;;82.90;13.25;;;;;;;;;;4943485;28;21516;-74
2023/01/04 12:31:48;;;;;;;79.65;12.25;;;;;;;;;;4927169;28;20619;-75
2023/01/04 12:34:24;;;;;;;88.80;12.00;;;;;;;;;;4944350;28;20303;-74
2023/01/04 12:36:50;;;;;;;82.93;11.95;;;;;;;;;;4944018;28;20035;-76
2023/01/04 12:39:15;;;;;;;88.70;13.70;;;;;;;;;;4945801;28;20039;-75
2023/01/04 12:41:59;;;;;;;99.78;13.95;;;;;;;;;;4948393;28;20050;-76
2023/01/04 12:44:37;;;;;;;79.55;11.38;;;;;;;;;;4945664;28;20023;-75
2023/01/04 12:50:10;;;;;;;89.10;13.18;;;;;;;;;;4928949;28;20030;-74
2023/01/04 12:52:38;;;;;;;85.25;13.27;;;;;;;;;;4927496;28;20109;-76
2023/01/04 12:55:22;;;;;;;74.22;11.75;;;;;;;;;;5007900;28;20409;-76
2023/01/04 12:57:49;;;;;;;82.25;12.15;;;;;;;;;;4992940;28;20612;-75
2023/01/04 13:00:15;;;;;;;87.03;13.18;;;;;;;;;;4930227;28;20728;-75
2023/01/04 13:03:00;;;;;;;85.75;12.27;;;;;;;;;;4929681;28;20042;-75
2023/01/04 13:05:35;;;;;;;75.45;11.07;;;;;;;;;;4937828;28;20548;-74
2023/01/04 13:08:02;;;;;;;85.90;12.25;;;;;;;;;;4928691;28;20573;-74
2023/01/04 13:10:33;;;;;;;87.72;12.45;;;;;;;;;;5011168;28;20031;-75
2023/01/04 13:13:05;;;;;;;90.32;12.32;;;;;;;;;;4927988;28;20092;-74
2023/01/04 13:15:33;;;;;;;77.47;11.95;;;;;;;;;;4928103;28;20082;-73
2023/01/04 13:17:59;;;;;;;80.22;12.50;;;;;;;;;;4927263;28;20038;-72
2023/01/04 13:20:26;;;;;;;78.55;11.52;;;;;;;;;;4927198;28;20039;-73
2023/01/04 13:22:55;;;;;;;90.00;11.43;;;;;;;;;;4960838;28;20037;-75
2023/01/04 13:25:22;;;;;;;74.07;10.77;;;;;;;;;;5025009;28;20290;-73
2023/01/04 13:27:58;;;;;;;73.63;10.32;;;;;;;;;;5007029;28;20041;-74
2023/01/04 13:30:30;;;;;;;84.43;11.30;;;;;;;;;;5022804;28;20186;-73
2023/01/04 13:32:55;;;;;;;78.47;11.68;;;;;;;;;;5023696;28;20029;-71
2023/01/04 13:35:21;;;;;;;69.90;10.30;;;;;;;;;;5025545;28;20041;-70
2023/01/04 13:37:47;;;;;;;77.15;11.07;;;;;;;;;;5008327;28;20036;-72
2023/01/04 13:40:15;;;;;;;72.30;10.38;;;;;;;;;;5020731;28;20030;-74
2023/01/04 13:42:41;;;;;;;73.63;10.35;;;;;;;;;;5006712;28;20030;-74
2023/01/04 13:45:15;;;;;;;75.45;11.45;;;;;;;;;;5009668;28;20143;-74
2023/01/04 13:47:41;;;;;;;67.25;10.45;;;;;;;;;;5025116;28;20032;-73
2023/01/04 13:50:23;;;;;;;73.72;11.30;;;;;;;;;;5024393;28;20431;-71
2023/01/04 13:52:49;;;;;;;71.40;10.60;;;;;;;;;;5024152;28;20025;-73
2023/01/04 13:55:19;;;;;;;68.38;9.82;;;;;;;;;;5005743;28;20395;-73
2023/01/04 13:57:52;;;;;;;70.28;10.32;;;;;;;;;;5023397;28;20029;-73
2023/01/04 14:00:17;;;;;;;66.68;9.60;;;;;;;;;;5023726;28;20381;-73
2023/01/04 14:02:43;;;;;;;78.32;11.40;;;;;;;;;;5024084;28;20029;-72
2023/01/04 14:05:13;;;;;;;73.78;10.35;;;;;;;;;;5021920;28;20033;-73
2023/01/04 14:07:41;;;;;;;76.72;11.07;;;;;;;;;;5024188;28;20025;-72
2023/01/04 14:10:17;;;;;;;76.43;10.88;;;;;;;;;;5023378;28;20045;-73
2023/01/04 14:12:44;;;;;;;75.45;10.45;;;;;;;;;;5023871;28;20032;-71
2023/01/04 14:15:21;;;;;;;70.63;10.32;;;;;;;;;;5023494;28;20262;-74
2023/01/04 14:17:50;;;;;;;78.88;10.80;;;;;;;;;;5023731;28;20098;-72
2023/01/04 14:20:18;;;;;;;87.47;11.35;;;;;;;;;;5023445;28;20391;-71
2023/01/04 14:22:43;;;;;;;80.35;12.38;;;;;;;;;;5002100;28;20049;-74
2023/01/04 14:25:28;;;;;;;79.68;11.18;;;;;;;;;;4943404;28;20044;-72
2023/01/04 14:28:16;;;;;;;78.55;11.20;;;;;;;;;;4943060;28;20287;-73
2023/01/04 14:30:43;;;;;;;84.65;10.95;;;;;;;;;;4943587;28;20714;-72
2023/01/04 14:33:13;;;;;;;82.00;11.45;;;;;;;;;;4942271;28;20385;-72
2023/01/04 14:35:39;;;;;;;63.83;9.73;;;;;;;;;;4924516;28;20050;-73
2023/01/04 14:38:05;;;;;;;81.10;11.23;;;;;;;;;;4943105;28;20437;-73
2023/01/04 14:40:31;;;;;;;68.22;9.80;;;;;;;;;;4924002;28;20050;-74
2023/01/04 14:42:56;;;;;;;75.20;10.95;;;;;;;;;;4941283;28;20035;-74
2023/01/04 14:45:24;;;;;;;77.28;10.65;;;;;;;;;;4940531;28;20084;-73
2023/01/04 14:47:51;;;;;;;65.03;11.50;;;;;;;;;;4983862;28;20242;-71
2023/01/04 14:50:17;;;;;;;68.22;10.00;;;;;;;;;;4940629;28;20192;-73
2023/01/04 14:52:52;;;;;;;78.90;11.38;;;;;;;;;;4941027;28;20042;-74
2023/01/04 14:55:18;;;;;;;72.50;11.68;;;;;;;;;;4940815;28;20111;-74
2023/01/04 14:57:45;;;;;;;65.00;10.23;;;;;;;;;;4939254;28;20077;-71
2023/01/04 15:00:14;;;;;;;71.38;10.57;;;;;;;;;;4941574;28;20455;-75
2023/01/04 15:02:40;;;;;;;76.75;10.93;;;;;;;;;;4923308;28;20097;-74
2023/01/04 15:05:11;;;;;;;69.97;10.40;;;;;;;;;;4941257;28;20858;-74
2023/01/04 15:07:39;;;;;;;65.88;10.30;;;;;;;;;;5005446;28;20030;-74
2023/01/04 15:10:05;;;;;;;77.30;11.07;;;;;;;;;;4941664;28;20408;-72
2023/01/04 15:12:30;;;;;;;61.13;10.50;;;;;;;;;;4941272;28;20050;-72
2023/01/04 15:14:56;;;;;;;70.30;10.38;;;;;;;;;;4941937;28;20039;-74
2023/01/04 15:17:24;;;;;;;76.40;12.10;;;;;;;;;;4995133;28;20043;-74
2023/01/04 15:19:49;;;;;;;70.55;11.23;;;;;;;;;;5005980;28;20665;-73